Arapahoe, Wyoming
Current Conditions -  °F | °C
As of 9:53 PM on Wednesday 17 Dec 2014 (Local Time) from KRIW Reporting Station
Haze Haze  
Wind Chill:   Ceiling: 100
Heat Index: 15°   Visibility: 0.25mi
Dew Point: 10°   Wind: 5mph
Humidity: 80%   Direction: 220°SW
Pressure: 29.98"   Gusts: NA
Location:  42.96°N, 108.49°W
Report Text: KRIW 180453Z AUTO 22004KT 1/4SM HZ VV001 M09/M12 A2998 RMK AO2 SLP213 T10941122
Loading
Personal Weather Stations






























Interactive Weather Map New forecast layout! Learn more

10-Day Weather Forecast

Advertisements
Track Severe Weather on mobile